Wilsonia, California
Current Conditions -  °F | °C
As of 12:56 PM on Friday 31 Oct 2014 (Local Time) from KBIH Reporting Station
Clear Clear  
Wind Chill: 71°   Ceiling: Unl
Heat Index: 71°   Visibility: 10mi
Dew Point: 19°   Wind: 28mph
Humidity: 14%   Direction: 170°S
Pressure: 29.8"   Gusts: 37mph
Location:  36.7872°N, 118.66°W
Report Text: KBIH 311956Z AUTO 17024G32KT 10SM CLR 22/M07 A2980 RMK AO2 PK WND 17033/1917 SLP048 T02171072
Loading
Personal Weather Stations






























Interactive Weather Map
Tropical Storm Tracking
New forecast layout! Learn more

10-Day Weather Forecast

Advertisements
Track Severe Weather on mobile